Ireland West Airport Knock, Ireland

12:48 PM GMT on February 09, 2016 (GMT +0000)
Charlestown | | Change Station
CLOSE
Current Station
Personal Weather Station
Location: Charlestown, MAYO
Elevation: 233 ft
Nearby Weather Stations

Elev 233 ft 53.96 °N, 8.79 °W | Updated 1 second ago

Light Rain Showers
Light Showers Rain
38.1 °F
Feels Like 30 °F
N
12.1
Wind Variable Wind from SW
Gusts 18.3 mph

Today
High -- | Low -- °F
--% Chance of Precip.
Yesterday
High -- | Low -- °F
Precip. -- in
Pressure 29.00 in
Visibility 6.2 miles
Clouds Scattered Clouds 1200 ft
Mostly Cloudy 1700 ft
Overcast 2200 ft
Windchill 30 °F
Dew Point 34 °F
Humidity 85%
Rainfall 0.00 in
Snow Depth Not available.
8:08 AM 5:31 PM
New Moon, 1% visible
METAR EIKN 091230Z 28024G40KT 9999 -SHRA SCT012 BKN017CB OVC022 03/01 Q0982 NOSIG
Pressure 29.00 in
Visibility 6.2 miles
Clouds Scattered Clouds 1200 ft
Mostly Cloudy 1700 ft
Overcast 2200 ft
Windchill 30 °F
Dew Point 34 °F
Humidity 85%
Rainfall 0.00 in
Snow Depth Not available.
8:08 AM 5:31 PM
New Moon, 1% visible
METAR EIKN 091230Z 28024G40KT 9999 -SHRA SCT012 BKN017CB OVC022 03/01 Q0982 NOSIG

10-Day Weather Forecast

Almanac

Astronomy

Feb. 09, 2016 Rise Set
Actual Time
Civil Twilight
Nautical Twilight
Astronomical Twilight
Moon
Length of Visible Light
Length of Day
Tomorrow will be .
, % of the Moon is Illuminated

Today's Extremes

Country Highs Country Lows

Community

WunderPhotos

Upload Photos

1,891,589 photos uploaded!

WunderBlog® & News

Nearby

Air Quality

  Air Quality AQ Index Pollutant
Not available.

Snow Depth

Station Depth Elevation

Earthquake Activity

City Distance Mag. Time & Date
Minimum magnitude displayed is 2.5.

Coastal Water Temperatures

Place Temperature

Stations

Nearby Weather Stations

Station Location Temp. Windchill Dew Point Humidity Wind Precip. Elev Updated Type